This is the latest recevied weather packets stored in our database for station/object VK5TRM-14. If no packets are shown the sender has not sent any weather packets the latest 10 day(s).
| Time | Temp. | Humidity | Pressure | Rain* | Wind** | Luminosity | Snow |
|---|---|---|---|---|---|---|---|
| 1778119205 | 14.44° C | 41% | 1029.9 hPa | 0 mm | - | - | - |
| 1778118305 | 14.44° C | 41% | 1029.9 hPa | 0 mm | - | - | - |
| 1778117406 | 13.89° C | 45% | 1029.9 hPa | 0 mm | - | - | - |
| 1778116505 | 13.89° C | 45% | 1029.9 hPa | 0 mm | - | - | - |
| 1778115605 | 13.33° C | 45% | 1029.9 hPa | 0 mm | - | - | - |
| 1778114705 | 13.33° C | 45% | 1029.9 hPa | 0 mm | - | - | - |
| 1778113805 | 12.22° C | 54% | 1029.8 hPa | 0 mm | - | - | - |
| 1778112905 | 12.22° C | 54% | 1029.8 hPa | 0 mm | - | - | - |
| 1778112005 | 11.67° C | 61% | 1029.6 hPa | 0 mm | - | - | - |
| 1778111105 | 11.67° C | 61% | 1029.6 hPa | 0 mm | - | - | - |
| 1778110205 | 10.56° C | 67% | 1029.4 hPa | 0 mm | - | - | - |
| 1778109305 | 10.56° C | 67% | 1029.4 hPa | 0 mm | - | - | - |
| 1778108405 | 8.89° C | 77% | 1029.1 hPa | 0 mm | - | - | - |
| 1778107505 | 8.89° C | 77% | 1029.1 hPa | 0 mm | - | - | - |
| 1778106605 | 7.22° C | 84% | 1028.6 hPa | 0 mm | - | - | - |
| 1778105705 | 7.22° C | 84% | 1028.6 hPa | 0 mm | - | - | - |
| 1778104805 | 6.67° C | 85% | 1028.2 hPa | 0 mm | - | - | - |
| 1778103905 | 6.67° C | 85% | 1028.2 hPa | 0 mm | - | - | - |
| 1778103005 | 6.67° C | 82% | 1027.7 hPa | 0 mm | - | - | - |
| 1778102105 | 6.67° C | 82% | 1027.7 hPa | 0 mm | - | - | - |
| 1778101205 | 8.33° C | 77% | 1027.4 hPa | 0 mm | - | - | - |
| 1778100305 | 8.33° C | 77% | 1027.4 hPa | 0 mm | - | - | - |
| 1778099405 | 8.89° C | 75% | 1027.3 hPa | 0 mm | - | - | - |
| 1778098505 | 8.89° C | 75% | 1027.3 hPa | 0 mm | - | - | - |
| 1778097605 | 8.89° C | 76% | 1027 hPa | 0 mm | - | - | - |
* Rain since midnight (hover to see other rain measurements)
** Current wind speed in m/s (hover to see current wind gust speed)